createdAt,value
2023-05-21T00:02:00.089Z,4.53
2023-05-21T00:04:28.694Z,5.95
2023-05-21T00:06:57.059Z,4.80
2023-05-21T00:09:24.395Z,7.07
2023-05-21T00:11:51.148Z,4.43
2023-05-21T00:14:17.989Z,5.38
2023-05-21T00:16:47.102Z,7.15
2023-05-21T00:19:14.070Z,9.70
2023-05-21T00:21:41.190Z,6.07
2023-05-21T00:24:08.211Z,6.82
2023-05-21T00:26:35.453Z,9.85
2023-05-21T00:29:02.554Z,7.53
2023-05-21T00:31:29.729Z,4.93
2023-05-21T00:33:56.600Z,7.43
2023-05-21T00:36:24.167Z,4.72
2023-05-21T00:38:51.428Z,6.32
2023-05-21T00:41:19.258Z,5.05
2023-05-21T00:43:46.139Z,7.90
2023-05-21T00:46:22.272Z,6.90
2023-05-21T00:48:51.129Z,5.30
2023-05-21T00:51:18.913Z,6.93
2023-05-21T00:53:46.664Z,4.28
2023-05-21T00:56:13.872Z,8.07
2023-05-21T00:58:41.785Z,5.32
2023-05-21T01:01:14.120Z,6.20
2023-05-21T01:03:44.584Z,10.77
2023-05-21T01:06:11.735Z,7.20
2023-05-21T01:08:40.867Z,7.28
2023-05-21T01:11:09.793Z,5.68
2023-05-21T01:13:38.865Z,9.00
2023-05-21T01:16:09.072Z,8.07
2023-05-21T01:18:37.745Z,4.45
2023-05-21T01:21:07.416Z,8.27
2023-05-21T01:23:35.112Z,5.63
2023-05-21T01:26:02.038Z,6.13
2023-05-21T01:28:29.881Z,6.60
2023-05-21T01:30:58.436Z,6.80
2023-05-21T01:33:34.786Z,4.43
2023-05-21T01:36:08.305Z,6.72
2023-05-21T01:38:42.728Z,5.30
2023-05-21T01:41:13.310Z,6.18
2023-05-21T01:43:42.607Z,7.30
2023-05-21T01:46:14.076Z,8.30
2023-05-21T01:48:41.726Z,6.28
2023-05-21T01:51:09.534Z,4.97
2023-05-21T01:53:38.914Z,6.25
2023-05-21T01:56:06.340Z,6.03
2023-05-21T01:58:33.489Z,6.28
2023-05-21T02:01:00.506Z,5.80
2023-05-21T02:03:28.479Z,8.32
2023-05-21T02:05:55.774Z,6.38
2023-05-21T02:08:29.842Z,10.25
2023-05-21T02:10:56.876Z,5.32
2023-05-21T02:13:29.209Z,12.73
2023-05-21T02:15:57.516Z,7.20
2023-05-21T02:18:26.441Z,6.57
2023-05-21T02:20:53.340Z,10.63
2023-05-21T02:23:22.018Z,12.23
2023-05-21T02:25:49.661Z,5.90
2023-05-21T02:28:16.474Z,6.22
2023-05-21T02:30:43.310Z,5.95
2023-05-21T02:33:14.207Z,7.85
2023-05-21T02:35:41.808Z,7.10
2023-05-21T02:38:09.868Z,6.03
2023-05-21T02:40:36.712Z,5.72
2023-05-21T02:43:03.501Z,7.78
2023-05-21T02:45:31.740Z,6.00
2023-05-21T02:47:59.031Z,8.75
2023-05-21T02:50:25.784Z,10.07
2023-05-21T02:52:56.732Z,7.22
2023-05-21T02:55:23.723Z,6.72
2023-05-21T02:57:50.952Z,9.52
2023-05-21T03:00:18.028Z,8.02
2023-05-21T03:05:11.782Z,8.02
2023-05-21T03:10:08.852Z,5.25
2023-05-21T03:12:36.675Z,7.15
2023-05-21T03:15:03.723Z,9.65
2023-05-21T03:17:33.527Z,7.47
2023-05-21T03:20:09.838Z,7.82
2023-05-21T03:22:42.334Z,7.50
2023-05-21T03:25:10.390Z,8.57
2023-05-21T03:27:43.566Z,12.18
2023-05-21T03:33:14.127Z,12.38
2023-05-21T03:35:42.679Z,8.15
2023-05-21T03:38:09.811Z,6.88
2023-05-21T03:40:36.816Z,8.65
2023-05-21T03:43:03.759Z,10.02
2023-05-21T03:45:30.637Z,8.75
2023-05-21T03:48:15.989Z,10.07
2023-05-21T03:50:43.400Z,7.88
2023-05-21T03:53:10.920Z,7.25
2023-05-21T03:55:38.488Z,8.05
2023-05-21T03:58:05.840Z,8.75
2023-05-21T04:00:34.542Z,8.45
2023-05-21T04:03:01.904Z,8.45
2023-05-21T04:05:28.879Z,7.80
2023-05-21T04:07:58.715Z,7.90
2023-05-21T04:10:26.092Z,9.00
2023-05-21T04:12:52.994Z,6.65
2023-05-21T04:15:20.374Z,9.23
2023-05-21T04:17:48.263Z,9.98
2023-05-21T04:20:16.941Z,8.65
2023-05-21T04:22:44.540Z,7.32
2023-05-21T04:25:12.219Z,6.68
2023-05-21T04:27:47.789Z,10.93
2023-05-21T04:30:14.917Z,8.25
2023-05-21T04:32:46.008Z,6.68
2023-05-21T04:35:15.718Z,7.43
2023-05-21T04:37:46.084Z,9.93
2023-05-21T04:40:18.472Z,7.82
2023-05-21T04:42:57.787Z,8.15
2023-05-21T04:45:24.793Z,8.88
2023-05-21T04:47:53.164Z,10.88
2023-05-21T04:50:20.523Z,8.32
2023-05-21T04:52:48.740Z,8.45
2023-05-21T04:55:19.104Z,11.77
2023-05-21T04:57:46.713Z,5.82
2023-05-21T05:00:18.880Z,7.28
2023-05-21T05:02:46.528Z,7.55
2023-05-21T05:05:13.598Z,10.50
2023-05-21T05:07:42.828Z,12.18
2023-05-21T05:10:11.416Z,8.75
2023-05-21T05:12:46.797Z,10.63
2023-05-21T05:15:14.116Z,9.77
2023-05-21T05:17:48.330Z,7.03
2023-05-21T05:20:15.713Z,7.85
2023-05-21T05:22:43.118Z,7.53
2023-05-21T05:25:13.214Z,8.90
2023-05-21T05:27:45.888Z,8.40
2023-05-21T05:30:13.898Z,7.25
2023-05-21T05:32:43.854Z,8.07
2023-05-21T05:35:12.880Z,7.63
2023-05-21T05:37:43.844Z,12.30
2023-05-21T05:40:11.085Z,7.40
2023-05-21T05:42:47.741Z,8.43
2023-05-21T05:45:17.453Z,9.80
2023-05-21T05:47:44.879Z,7.15
2023-05-21T05:50:13.727Z,7.93
2023-05-21T05:52:42.690Z,8.60
2023-05-21T05:55:12.286Z,8.25
2023-05-21T05:57:48.402Z,9.15
2023-05-21T06:00:17.452Z,6.38
2023-05-21T06:02:48.368Z,7.43
2023-05-21T06:05:15.641Z,9.65
2023-05-21T06:07:46.032Z,6.68
2023-05-21T06:10:12.822Z,9.02
2023-05-21T06:12:47.160Z,8.40
2023-05-21T06:15:19.780Z,6.57
2023-05-21T06:17:47.190Z,7.50
2023-05-21T06:20:16.893Z,7.65
2023-05-21T06:22:44.561Z,8.20
2023-05-21T06:25:11.408Z,11.25
2023-05-21T06:27:44.971Z,8.05
2023-05-21T06:30:18.862Z,8.13
2023-05-21T06:32:46.011Z,9.20
2023-05-21T06:35:13.130Z,8.90
2023-05-21T06:37:43.496Z,10.07
2023-05-21T06:40:10.532Z,10.02
2023-05-21T06:42:46.723Z,7.72
2023-05-21T06:45:32.496Z,9.48
2023-05-21T06:48:05.399Z,7.43
2023-05-21T06:50:33.948Z,8.77
2023-05-21T06:53:01.811Z,8.40
2023-05-21T06:55:29.277Z,9.18
2023-05-21T06:58:07.348Z,9.43
2023-05-21T07:00:35.483Z,7.15
2023-05-21T07:03:03.601Z,11.02
2023-05-21T07:05:30.875Z,10.93
2023-05-21T07:07:57.851Z,11.10
2023-05-21T07:10:25.052Z,10.00
2023-05-21T07:12:51.869Z,9.07
2023-05-21T07:15:20.324Z,10.95
2023-05-21T07:17:47.985Z,7.72
2023-05-21T07:20:15.558Z,8.18
2023-05-21T07:22:46.709Z,11.50
2023-05-21T07:25:14.830Z,10.20
2023-05-21T07:27:43.993Z,7.53
2023-05-21T07:30:11.774Z,11.30
2023-05-21T07:32:42.990Z,15.23
2023-05-21T07:35:09.883Z,10.77
2023-05-21T07:37:38.863Z,9.23
2023-05-21T07:40:17.813Z,7.80
2023-05-21T07:43:02.086Z,9.73
2023-05-21T07:45:32.552Z,11.45
2023-05-21T07:47:59.371Z,8.57
2023-05-21T07:50:28.554Z,9.10
2023-05-21T07:52:58.392Z,8.52
2023-05-21T07:55:26.810Z,9.00
2023-05-21T07:57:55.198Z,10.52
2023-05-21T08:00:28.946Z,9.57
2023-05-21T08:02:58.024Z,8.75
2023-05-21T08:05:26.811Z,10.10
2023-05-21T08:07:56.382Z,11.30
2023-05-21T08:10:27.941Z,8.73
2023-05-21T08:13:00.065Z,8.73
2023-05-21T08:15:32.072Z,9.40
2023-05-21T08:18:03.684Z,9.40
2023-05-21T08:20:33.464Z,11.10
2023-05-21T08:23:01.490Z,16.23
2023-05-21T08:25:35.453Z,8.60
2023-05-21T08:28:05.677Z,11.95
2023-05-21T08:30:32.658Z,10.38
2023-05-21T08:32:59.677Z,11.20
2023-05-21T08:35:27.949Z,10.27
2023-05-21T08:37:59.572Z,10.90
2023-05-21T08:40:41.560Z,9.32
2023-05-21T08:43:13.748Z,11.48
2023-05-21T08:45:47.752Z,8.65
2023-05-21T08:48:17.494Z,9.90
2023-05-21T08:50:45.155Z,10.45
2023-05-21T08:53:28.097Z,11.25
2023-05-21T08:55:57.557Z,8.75
2023-05-21T08:58:33.696Z,9.18
2023-05-21T09:01:00.864Z,13.73
2023-05-21T09:03:29.418Z,9.60
2023-05-21T09:05:56.835Z,10.48
2023-05-21T09:08:27.868Z,11.82
2023-05-21T09:11:02.050Z,11.38
2023-05-21T09:13:35.794Z,12.32
2023-05-21T09:16:07.866Z,11.02
2023-05-21T09:18:35.389Z,9.52
2023-05-21T09:21:25.916Z,7.43
2023-05-21T09:23:56.468Z,8.18
2023-05-21T09:26:24.764Z,10.75
2023-05-21T09:28:59.374Z,7.65
2023-05-21T09:31:27.575Z,10.77
2023-05-21T09:36:24.110Z,9.23
2023-05-21T09:38:52.074Z,8.98
2023-05-21T09:41:22.228Z,10.02
2023-05-21T09:43:49.854Z,7.85
2023-05-21T09:46:21.228Z,13.65
2023-05-21T09:48:48.431Z,7.15
2023-05-21T09:51:22.775Z,10.80
2023-05-21T09:53:59.536Z,7.82
2023-05-21T09:56:29.586Z,7.95
2023-05-21T09:58:57.920Z,9.57
2023-05-21T10:01:25.607Z,8.40
2023-05-21T10:03:58.392Z,7.10
2023-05-21T10:06:29.018Z,10.02
2023-05-21T10:08:56.938Z,7.68
2023-05-21T10:11:29.387Z,8.23
2023-05-21T10:14:15.912Z,12.07
2023-05-21T10:16:44.800Z,10.38
2023-05-21T10:19:15.679Z,10.40
2023-05-21T10:21:45.192Z,9.10
2023-05-21T10:24:15.665Z,7.85
2023-05-21T10:26:43.753Z,15.40
2023-05-21T10:29:12.685Z,8.65
2023-05-21T10:31:41.406Z,8.73
2023-05-21T10:34:09.133Z,12.68
2023-05-21T10:36:36.684Z,10.50
2023-05-21T10:39:07.677Z,12.55
2023-05-21T10:41:39.691Z,12.73
2023-05-21T10:44:14.001Z,10.43
2023-05-21T10:47:03.143Z,8.32
2023-05-21T10:49:49.031Z,9.48
2023-05-21T10:54:49.910Z,11.85
2023-05-21T10:57:33.526Z,11.18
2023-05-21T11:00:02.537Z,11.38
2023-05-21T11:02:36.861Z,8.13
2023-05-21T11:05:10.979Z,8.68
2023-05-21T11:07:51.415Z,8.02
2023-05-21T11:10:48.465Z,9.27
2023-05-21T11:13:20.037Z,8.75
2023-05-21T11:15:59.881Z,8.63
2023-05-21T11:18:36.809Z,10.32
2023-05-21T11:21:09.022Z,9.15
2023-05-21T11:23:51.772Z,10.32
2023-05-21T11:26:19.200Z,9.68
2023-05-21T11:28:46.171Z,9.70
2023-05-21T11:31:26.014Z,9.90
2023-05-21T11:34:11.383Z,8.35
2023-05-21T11:36:39.219Z,10.95
2023-05-21T11:39:13.451Z,8.13
2023-05-21T11:42:01.578Z,8.57
2023-05-21T11:44:40.227Z,13.45
2023-05-21T11:47:11.693Z,9.20
2023-05-21T11:50:12.264Z,11.38
2023-05-21T11:52:47.533Z,9.65
2023-05-21T11:57:48.152Z,9.20
2023-05-21T12:00:16.318Z,10.15
2023-05-21T12:02:45.296Z,10.18
2023-05-21T12:05:13.292Z,9.85
2023-05-21T12:07:42.217Z,11.90
2023-05-21T12:10:09.991Z,8.95
2023-05-21T12:12:54.950Z,8.32
2023-05-21T12:15:30.300Z,13.45
2023-05-21T12:17:59.498Z,11.53
2023-05-21T12:20:33.802Z,8.43
2023-05-21T12:23:02.482Z,8.27
2023-05-21T12:25:30.079Z,9.23
2023-05-21T12:27:59.058Z,10.02
2023-05-21T12:30:26.437Z,10.85
2023-05-21T12:32:53.304Z,10.40
2023-05-21T12:35:21.953Z,12.32
2023-05-21T12:37:51.031Z,8.52
2023-05-21T12:40:18.625Z,9.45
2023-05-21T12:42:46.112Z,10.43
2023-05-21T12:45:13.230Z,11.75
2023-05-21T12:47:44.047Z,10.00
2023-05-21T12:50:12.401Z,7.88
2023-05-21T12:52:44.501Z,9.48
2023-05-21T12:55:13.448Z,14.13
2023-05-21T12:57:46.594Z,10.57
2023-05-21T13:00:14.562Z,13.27
2023-05-21T13:02:43.969Z,8.82
2023-05-21T13:05:17.663Z,12.00
2023-05-21T13:07:48.728Z,11.15
2023-05-21T13:10:17.006Z,9.23
2023-05-21T13:12:45.775Z,10.15
2023-05-21T13:15:13.021Z,9.75
2023-05-21T13:17:43.806Z,9.07
2023-05-21T13:20:13.073Z,7.85
2023-05-21T13:22:46.820Z,10.73
2023-05-21T13:25:22.867Z,9.93
2023-05-21T13:27:51.505Z,11.45
2023-05-21T13:30:19.083Z,10.85
2023-05-21T13:32:46.801Z,8.10
2023-05-21T13:35:16.585Z,9.88
2023-05-21T13:37:45.224Z,7.45
2023-05-21T13:40:16.410Z,10.07
2023-05-21T13:42:45.994Z,9.50
2023-05-21T13:45:14.789Z,6.72
2023-05-21T13:47:45.212Z,8.55
2023-05-21T13:50:12.477Z,12.25
2023-05-21T13:52:40.853Z,6.90
2023-05-21T13:55:08.690Z,8.93
2023-05-21T13:57:41.117Z,9.43
2023-05-21T14:00:10.883Z,10.38
2023-05-21T14:02:42.461Z,9.80
2023-05-21T14:05:10.070Z,9.13
2023-05-21T14:07:41.512Z,8.65
2023-05-21T14:10:09.739Z,8.40
2023-05-21T14:12:40.282Z,8.52
2023-05-21T14:15:10.155Z,12.82
2023-05-21T14:17:43.371Z,9.05
2023-05-21T14:20:11.457Z,10.25
2023-05-21T14:22:39.527Z,11.55
2023-05-21T14:25:07.406Z,9.13
2023-05-21T14:27:37.959Z,9.32
2023-05-21T14:30:08.122Z,18.35
2023-05-21T14:32:45.640Z,30.50
2023-05-21T14:35:13.813Z,48.10
2023-05-21T14:37:43.710Z,17.63
2023-05-21T14:40:11.450Z,13.10
2023-05-21T14:42:38.860Z,10.70
2023-05-21T14:45:18.731Z,11.07
2023-05-21T14:47:48.814Z,11.45
2023-05-21T14:50:16.863Z,23.00
2023-05-21T14:52:45.523Z,8.88
2023-05-21T14:55:12.836Z,8.13
2023-05-21T14:57:43.225Z,12.02
2023-05-21T15:00:12.260Z,12.10
2023-05-21T15:02:44.390Z,16.23
2023-05-21T15:05:11.952Z,20.55
2023-05-21T15:07:43.122Z,16.98
2023-05-21T15:10:10.735Z,12.48
2023-05-21T15:12:41.317Z,17.33
2023-05-21T15:15:12.484Z,10.88
2023-05-21T15:17:42.414Z,16.10
2023-05-21T15:20:10.573Z,14.77
2023-05-21T15:22:37.852Z,11.77
2023-05-21T15:25:06.702Z,10.55
2023-05-21T15:27:37.052Z,12.05
2023-05-21T15:30:06.708Z,16.77
2023-05-21T15:32:34.931Z,29.63
2023-05-21T15:35:03.414Z,13.77
2023-05-21T15:37:32.665Z,14.90
2023-05-21T15:40:00.434Z,15.13
2023-05-21T15:42:31.320Z,17.83
2023-05-21T15:44:58.652Z,9.15
2023-05-21T15:47:25.701Z,10.25
2023-05-21T15:49:52.746Z,11.02
2023-05-21T15:52:20.936Z,22.90
2023-05-21T15:54:48.049Z,21.48
2023-05-21T15:57:20.594Z,12.88
2023-05-21T15:59:50.658Z,10.30
2023-05-21T16:02:24.566Z,14.95
2023-05-21T16:04:52.870Z,12.20
2023-05-21T16:07:21.304Z,12.77
2023-05-21T16:09:48.600Z,14.35
2023-05-21T16:12:19.864Z,16.17
2023-05-21T16:14:49.863Z,9.95
2023-05-21T16:17:24.158Z,9.13
2023-05-21T16:19:51.401Z,8.70
2023-05-21T16:22:21.326Z,7.43
2023-05-21T16:24:48.904Z,7.13
2023-05-21T16:27:20.157Z,12.23
2023-05-21T16:29:48.521Z,10.88
2023-05-21T16:32:21.958Z,13.48
2023-05-21T16:34:49.582Z,11.98
2023-05-21T16:37:18.144Z,13.68
2023-05-21T16:39:45.666Z,9.40
2023-05-21T16:42:16.165Z,7.50
2023-05-21T16:44:43.780Z,14.63
2023-05-21T16:47:12.997Z,10.75
2023-05-21T16:49:41.441Z,13.75
2023-05-21T16:52:10.390Z,13.45
2023-05-21T16:54:48.752Z,8.75
2023-05-21T16:57:19.835Z,11.80
2023-05-21T16:59:47.648Z,12.82
2023-05-21T17:02:21.276Z,10.70
2023-05-21T17:04:48.886Z,12.52
2023-05-21T17:07:17.221Z,9.05
2023-05-21T17:09:44.494Z,9.45
2023-05-21T17:12:16.455Z,7.88
2023-05-21T17:14:43.466Z,14.77
2023-05-21T17:17:10.298Z,13.95
2023-05-21T17:19:42.054Z,11.30
2023-05-21T17:22:15.990Z,10.40
2023-05-21T17:24:43.576Z,8.90
2023-05-21T17:27:19.379Z,9.73
2023-05-21T17:29:47.738Z,9.73
2023-05-21T17:32:25.184Z,8.02
2023-05-21T17:34:53.948Z,9.45
2023-05-21T17:37:20.966Z,11.20
2023-05-21T17:39:48.394Z,13.95
2023-05-21T17:42:15.640Z,10.32
2023-05-21T17:44:43.571Z,12.40
2023-05-21T17:47:11.183Z,8.30
2023-05-21T17:49:41.967Z,15.32
2023-05-21T17:52:11.542Z,10.65
2023-05-21T17:54:43.545Z,11.57
2023-05-21T17:57:12.429Z,12.10
2023-05-21T17:59:45.545Z,15.65
2023-05-21T18:02:43.115Z,15.15
2023-05-21T18:05:11.145Z,12.18
2023-05-21T18:07:54.773Z,17.55
2023-05-21T18:10:21.961Z,11.20
2023-05-21T18:12:53.025Z,11.15
2023-05-21T18:15:20.627Z,10.52
2023-05-21T18:17:49.266Z,9.85
2023-05-21T18:20:21.692Z,9.32
2023-05-21T18:22:50.854Z,13.95
2023-05-21T18:25:17.853Z,13.18
2023-05-21T18:27:52.237Z,13.43
2023-05-21T18:30:20.110Z,12.35
2023-05-21T18:33:00.627Z,16.15
2023-05-21T18:35:30.335Z,11.52
2023-05-21T18:38:00.691Z,11.63
2023-05-21T18:40:37.951Z,12.95
2023-05-21T18:43:11.822Z,15.10
2023-05-21T18:45:50.895Z,14.52
2023-05-21T18:48:21.595Z,12.43
2023-05-21T18:50:51.283Z,14.02
2023-05-21T18:53:19.069Z,14.35
2023-05-21T18:55:46.185Z,13.00
2023-05-21T18:58:16.996Z,18.75
2023-05-21T19:00:50.423Z,14.75
2023-05-21T19:03:19.416Z,17.73
2023-05-21T19:05:46.419Z,16.60
2023-05-21T19:08:15.202Z,14.30
2023-05-21T19:10:42.349Z,19.05
2023-05-21T19:13:09.555Z,19.90
2023-05-21T19:15:39.027Z,15.68
2023-05-21T19:18:06.055Z,14.98
2023-05-21T19:20:33.328Z,16.90
2023-05-21T19:23:00.474Z,18.25
2023-05-21T19:25:28.976Z,16.58
2023-05-21T19:27:56.499Z,18.27
2023-05-21T19:30:23.648Z,14.88
2023-05-21T19:32:52.297Z,21.98
2023-05-21T19:35:21.183Z,15.68
2023-05-21T19:37:59.668Z,14.15
2023-05-21T19:40:35.760Z,15.93
2023-05-21T19:43:05.777Z,16.85
2023-05-21T19:45:43.803Z,17.90
2023-05-21T19:48:19.621Z,16.05
2023-05-21T19:50:49.735Z,18.98
2023-05-21T19:53:21.478Z,17.80
2023-05-21T19:55:54.590Z,21.05
2023-05-21T19:58:31.313Z,17.00
2023-05-21T20:01:07.764Z,19.95
2023-05-21T20:03:45.520Z,18.50
2023-05-21T20:06:43.764Z,19.70
2023-05-21T20:09:13.818Z,18.20
2023-05-21T20:11:42.201Z,16.00
2023-05-21T20:14:09.578Z,21.83
2023-05-21T20:16:37.028Z,21.83
2023-05-21T20:19:04.273Z,18.08
2023-05-21T20:21:34.073Z,23.38
2023-05-21T20:24:01.153Z,15.70
2023-05-21T20:26:28.153Z,18.15
2023-05-21T20:28:55.164Z,20.52
2023-05-21T20:31:22.707Z,16.67
2023-05-21T20:33:50.764Z,17.08
2023-05-21T20:36:30.452Z,19.88
2023-05-21T20:38:57.542Z,16.75
2023-05-21T20:41:37.833Z,18.05
2023-05-21T20:44:05.374Z,21.15
2023-05-21T20:46:32.585Z,16.13
2023-05-21T20:48:59.986Z,19.95
2023-05-21T20:51:27.444Z,17.45
2023-05-21T20:53:54.315Z,19.23
2023-05-21T20:56:29.902Z,17.88
2023-05-21T21:01:38.080Z,21.23
2023-05-21T21:04:05.805Z,20.48
2023-05-21T21:06:32.717Z,17.70
2023-05-21T21:09:02.465Z,19.85
2023-05-21T21:11:29.769Z,23.70
2023-05-21T21:13:56.811Z,16.02
2023-05-21T21:16:23.778Z,18.45
2023-05-21T21:18:50.669Z,20.40
2023-05-21T21:21:18.732Z,20.42
2023-05-21T21:23:45.681Z,18.77
2023-05-21T21:26:12.534Z,19.77
2023-05-21T21:28:40.118Z,20.67
2023-05-21T21:31:06.946Z,34.08
2023-05-21T21:33:33.954Z,19.42
2023-05-21T21:36:00.789Z,20.55
2023-05-21T21:38:27.797Z,19.67
2023-05-21T21:40:55.513Z,19.42
2023-05-21T21:43:22.353Z,19.25
2023-05-21T21:45:49.555Z,16.65
2023-05-21T21:48:16.824Z,21.25
2023-05-21T21:50:44.893Z,20.40
2023-05-21T21:53:14.035Z,18.23
2023-05-21T21:55:41.014Z,19.08
2023-05-21T21:58:07.863Z,25.45
2023-05-21T22:00:35.205Z,21.10
2023-05-21T22:03:02.034Z,19.95
2023-05-21T22:05:32.784Z,23.27
2023-05-21T22:07:59.727Z,28.67
2023-05-21T22:10:28.488Z,25.92
2023-05-21T22:12:55.673Z,28.23
2023-05-21T22:15:29.742Z,27.40
2023-05-21T22:17:56.833Z,18.80
2023-05-21T22:20:30.544Z,26.70
2023-05-21T22:22:57.915Z,20.33
2023-05-21T22:25:25.100Z,31.35
2023-05-21T22:27:52.438Z,22.70
2023-05-21T22:30:19.561Z,23.15
2023-05-21T22:32:46.871Z,22.58
2023-05-21T22:35:13.863Z,27.10
2023-05-21T22:37:41.014Z,20.95
2023-05-21T22:40:14.712Z,21.50
2023-05-21T22:42:42.766Z,22.10
2023-05-21T22:45:18.866Z,32.00
2023-05-21T22:47:45.759Z,34.58
2023-05-21T22:50:12.927Z,28.98
2023-05-21T22:52:40.561Z,24.60
2023-05-21T22:55:11.259Z,32.75
2023-05-21T22:57:43.761Z,22.90
2023-05-21T23:00:19.321Z,22.10
2023-05-21T23:02:47.737Z,31.02
2023-05-21T23:05:15.508Z,27.90
2023-05-21T23:07:48.446Z,25.90
2023-05-21T23:10:15.452Z,31.98
2023-05-21T23:12:49.686Z,28.05
2023-05-21T23:15:16.600Z,32.47
2023-05-21T23:17:44.421Z,30.67
2023-05-21T23:20:26.279Z,28.35
2023-05-21T23:22:56.339Z,25.27
2023-05-21T23:25:26.631Z,30.73
2023-05-21T23:27:53.797Z,28.80
2023-05-21T23:30:21.153Z,31.42
2023-05-21T23:32:53.873Z,32.30
2023-05-21T23:35:25.441Z,25.90
2023-05-21T23:37:56.711Z,29.25
2023-05-21T23:40:23.894Z,34.40
2023-05-21T23:42:50.837Z,32.13
2023-05-21T23:45:18.170Z,29.40
2023-05-21T23:47:45.061Z,36.80
2023-05-21T23:50:16.982Z,34.75
2023-05-21T23:52:48.598Z,32.58
2023-05-21T23:55:15.967Z,36.13
2023-05-21T23:57:49.719Z,27.67
